Time;durP1;ratioP1;P1;durP2;ratioP2;P2;SDS_P1;SDS_P2;PMS_P1;PMS_P2;Temp;Humidity;BMP_temperature;BMP_pressure;BME280_temperature;BME280_humidity;BME280_pressure;Samples;Min_cycle;Max_cycle;Signal;HPM_P1;HPM_P2
2023/06/14 00:01:25;;;;;;;6.00;3.77;;;;;;;18.67;47.91;99720.50;5012220;28;20237;-61
2023/06/14 00:03:50;;;;;;;7.17;4.30;;;;;;;18.66;47.71;99716.25;5016539;28;20262;-61
2023/06/14 00:06:15;;;;;;;6.77;4.00;;;;;;;18.65;47.48;99717.22;5010939;28;20189;-61
2023/06/14 00:08:41;;;;;;;4.00;3.57;;;;;;;18.60;47.86;99722.03;5011694;28;20193;-61
2023/06/14 00:11:07;;;;;;;5.73;3.83;;;;;;;18.54;48.16;99714.81;5009959;28;20740;-61
2023/06/14 00:13:32;;;;;;;6.90;4.03;;;;;;;18.59;48.05;99717.00;5005349;28;20187;-61
2023/06/14 00:15:57;;;;;;;6.13;4.30;;;;;;;18.52;48.08;99716.75;5011376;28;20209;-61
2023/06/14 00:18:29;;;;;;;5.90;4.50;;;;;;;18.46;48.38;99715.53;5011620;28;20550;-62
2023/06/14 00:20:54;;;;;;;4.47;3.93;;;;;;;18.47;48.65;99714.59;5003579;28;20226;-60
2023/06/14 00:23:20;;;;;;;5.73;4.30;;;;;;;18.34;49.13;99714.91;5019985;28;20225;-61
2023/06/14 00:25:45;;;;;;;6.37;4.17;;;;;;;18.42;49.06;99715.97;5009941;28;20289;-63
2023/06/14 00:28:10;;;;;;;5.47;4.67;;;;;;;18.42;49.36;99722.00;5011688;28;20197;-60
2023/06/14 00:30:35;;;;;;;8.50;4.40;;;;;;;18.44;49.33;99719.25;5005820;28;20316;-61
2023/06/14 00:33:01;;;;;;;4.87;3.73;;;;;;;18.36;50.04;99715.59;5022103;28;20202;-62
2023/06/14 00:35:26;;;;;;;6.07;4.03;;;;;;;18.40;50.12;99716.13;5011181;28;20696;-61
2023/06/14 00:37:52;;;;;;;9.17;4.53;;;;;;;18.19;50.46;99713.75;5011506;28;20175;-61
2023/06/14 00:40:17;;;;;;;9.50;4.57;;;;;;;18.16;51.69;99716.59;5003443;28;20194;-61
2023/06/14 00:42:42;;;;;;;4.93;4.07;;;;;;;18.20;50.66;99712.78;5024884;28;20539;-61
2023/06/14 00:45:09;;;;;;;4.73;4.10;;;;;;;18.19;51.08;99718.94;5011349;28;20217;-61
2023/06/14 00:47:37;;;;;;;4.60;4.00;;;;;;;18.13;51.07;99716.91;5011461;28;20187;-61
2023/06/14 00:50:02;;;;;;;7.37;4.77;;;;;;;18.09;51.53;99716.38;5008657;28;20187;-61
2023/06/14 00:52:29;;;;;;;4.27;3.87;;;;;;;18.07;51.59;99713.06;5022127;28;20716;-61
2023/06/14 00:54:54;;;;;;;5.07;4.20;;;;;;;18.04;51.91;99726.38;5011592;28;20584;-61
2023/06/14 00:57:21;;;;;;;8.10;3.70;;;;;;;17.99;52.51;99716.41;5003894;28;20185;-61
2023/06/14 00:59:48;;;;;;;6.40;4.50;;;;;;;18.01;51.63;99719.69;5011595;28;20183;-61
2023/06/14 01:02:17;;;;;;;9.33;4.30;;;;;;;18.10;51.51;99719.78;5016378;28;20253;-62
2023/06/14 01:04:48;;;;;;;4.57;4.17;;;;;;;17.96;52.14;99731.47;5011515;28;20283;-60
2023/06/14 01:07:14;;;;;;;6.53;4.00;;;;;;;17.95;52.18;99717.66;5009771;28;20722;-60
2023/06/14 01:09:57;;;;;;;8.50;4.13;;;;;;;17.93;52.54;99727.34;5011487;28;20265;-60
2023/06/14 01:12:35;;;;;;;6.20;3.97;;;;;;;17.86;52.61;99726.25;5004124;28;20219;-60
2023/06/14 01:15:02;;;;;;;5.27;4.60;;;;;;;17.95;52.85;99728.06;5010707;28;20198;-60
2023/06/14 01:17:31;;;;;;;6.07;4.40;;;;;;;17.99;52.47;99729.41;5011336;28;20372;-61
2023/06/14 01:20:06;;;;;;;6.90;4.20;;;;;;;17.87;53.68;99727.91;5013829;28;20267;-60
2023/06/14 01:22:32;;;;;;;5.90;4.50;;;;;;;17.87;53.07;99735.69;5003641;28;20461;-61
2023/06/14 01:24:57;;;;;;;4.83;4.33;;;;;;;17.85;53.05;99730.66;5014526;28;20293;-62
2023/06/14 01:27:28;;;;;;;4.90;3.60;;;;;;;17.82;53.48;99732.69;5014604;28;20187;-61
2023/06/14 01:29:56;;;;;;;7.03;3.93;;;;;;;17.83;53.50;99723.94;5001662;28;20544;-61
2023/06/14 01:32:23;;;;;;;4.10;3.80;;;;;;;17.69;55.00;99736.41;5010077;28;20254;-61
2023/06/14 01:34:48;;;;;;;6.63;4.13;;;;;;;17.72;55.09;99730.94;5011322;28;20639;-61
2023/06/14 01:37:14;;;;;;;4.37;3.97;;;;;;;17.73;54.83;99736.97;5012858;28;20317;-60
2023/06/14 01:39:41;;;;;;;7.20;4.20;;;;;;;17.72;54.66;99736.16;5014472;28;20179;-60
2023/06/14 01:42:07;;;;;;;8.13;3.73;;;;;;;17.65;55.34;99734.22;5019713;28;20693;-60
2023/06/14 01:44:33;;;;;;;4.63;4.00;;;;;;;17.62;55.22;99724.13;5013922;28;20174;-61
2023/06/14 01:47:01;;;;;;;5.37;4.00;;;;;;;17.64;55.62;99730.81;5014248;28;20183;-61
2023/06/14 01:49:27;;;;;;;6.50;4.20;;;;;;;17.55;56.69;99736.81;5012447;28;20182;-61
2023/06/14 01:51:52;;;;;;;5.30;3.60;;;;;;;17.47;56.57;99732.31;5018493;28;20230;-62
2023/06/14 01:54:17;;;;;;;5.87;4.13;;;;;;;17.56;56.79;99736.72;5015202;28;20201;-61
2023/06/14 01:56:42;;;;;;;5.53;3.93;;;;;;;17.48;57.25;99733.16;5006543;28;20202;-60
2023/06/14 01:59:08;;;;;;;4.30;3.83;;;;;;;17.34;57.83;99732.59;5013884;28;20578;-62
2023/06/14 02:01:34;;;;;;;5.67;3.93;;;;;;;17.32;58.46;99728.50;5015685;28;20233;-61
2023/06/14 02:03:59;;;;;;;3.90;3.20;;;;;;;17.27;58.95;99729.72;5017565;28;20306;-61
2023/06/14 02:06:26;;;;;;;6.80;4.10;;;;;;;17.24;59.39;99731.75;5013474;28;20265;-61
2023/06/14 02:08:51;;;;;;;4.40;4.00;;;;;;;17.12;59.70;99733.69;5013890;28;20194;-61
2023/06/14 02:11:17;;;;;;;8.97;4.30;;;;;;;17.16;58.96;99726.44;5013284;28;20237;-61
2023/06/14 02:13:42;;;;;;;4.20;3.73;;;;;;;17.07;59.56;99731.47;5019331;28;20190;-61
2023/06/14 02:16:07;;;;;;;9.80;4.10;;;;;;;17.06;59.75;99729.03;5013291;28;20811;-61
2023/06/14 02:18:33;;;;;;;9.13;4.07;;;;;;;17.05;60.51;99732.56;5013607;28;20233;-61
2023/06/14 02:20:58;;;;;;;7.07;3.63;;;;;;;17.07;59.03;99734.06;5010845;28;20292;-61
2023/06/14 02:23:23;;;;;;;4.27;3.87;;;;;;;17.06;58.88;99729.84;5021598;28;20207;-61
2023/06/14 02:25:48;;;;;;;5.43;3.70;;;;;;;17.08;58.83;99740.91;5013211;28;20202;-61
2023/06/14 02:28:14;;;;;;;5.20;4.07;;;;;;;17.10;59.32;99731.22;5013101;28;20261;-61
2023/06/14 02:30:40;;;;;;;7.90;4.10;;;;;;;17.09;58.99;99739.97;5008155;28;20309;-60
2023/06/14 02:33:05;;;;;;;5.97;4.20;;;;;;;17.06;59.23;99732.44;5023815;28;20198;-60
2023/06/14 02:35:31;;;;;;;6.73;4.43;;;;;;;17.07;58.85;99739.28;5013187;28;20593;-60
2023/06/14 02:37:56;;;;;;;5.93;4.17;;;;;;;17.05;59.69;99735.97;5013362;28;20627;-60
2023/06/14 02:40:22;;;;;;;5.87;4.03;;;;;;;17.06;59.02;99729.84;5005603;28;20225;-60
2023/06/14 02:42:47;;;;;;;5.37;4.20;;;;;;;17.09;59.81;99731.34;5025718;28;20631;-61
2023/06/14 02:45:13;;;;;;;5.67;4.43;;;;;;;17.09;58.92;99734.78;5011793;28;20258;-60
2023/06/14 02:47:38;;;;;;;4.10;3.70;;;;;;;17.00;59.24;99734.75;5013356;28;20186;-61
2023/06/14 02:50:04;;;;;;;4.30;3.57;;;;;;;17.03;59.68;99731.88;5002721;28;20237;-61
2023/06/14 02:52:29;;;;;;;4.37;3.67;;;;;;;16.98;59.90;99742.69;5027729;28;20276;-61
2023/06/14 02:54:54;;;;;;;7.43;3.67;;;;;;;17.03;59.59;99732.72;5013423;28;20197;-61
2023/06/14 02:57:23;;;;;;;9.30;4.03;;;;;;;17.07;59.38;99735.88;5005165;28;20256;-60
2023/06/14 02:59:48;;;;;;;4.90;3.53;;;;;;;17.04;59.39;99731.75;5013058;28;20190;-61
2023/06/14 03:02:14;;;;;;;6.00;3.87;;;;;;;16.98;60.02;99737.50;4991524;28;20580;-62
2023/06/14 03:04:40;;;;;;;7.63;4.17;;;;;;;16.91;60.90;99742.38;5013244;28;20293;-61
2023/06/14 03:07:08;;;;;;;4.47;3.77;;;;;;;16.90;61.44;99737.31;5012296;28;20182;-61
2023/06/14 03:09:38;;;;;;;4.57;4.03;;;;;;;16.77;62.77;99748.75;5011703;28;20584;-59
2023/06/14 03:12:06;;;;;;;4.43;3.80;;;;;;;16.77;62.76;99746.16;5017721;28;20250;-61
2023/06/14 03:14:31;;;;;;;9.73;3.83;;;;;;;16.83;62.92;99751.78;5012544;28;20225;-61
2023/06/14 03:16:57;;;;;;;7.37;5.23;;;;;;;16.82;63.07;99753.56;5016484;28;20291;-61
2023/06/14 03:19:23;;;;;;;7.27;4.47;;;;;;;16.82;62.86;99756.16;5013393;28;20537;-61
2023/06/14 03:21:48;;;;;;;4.33;3.70;;;;;;;16.76;62.95;99759.28;5015773;28;20888;-61
2023/06/14 03:24:16;;;;;;;5.03;3.57;;;;;;;16.70;63.17;99765.00;5014028;28;20190;-60
2023/06/14 03:26:41;;;;;;;8.40;3.77;;;;;;;16.74;63.59;99761.19;5011839;28;20199;-62
2023/06/14 03:29:06;;;;;;;7.03;3.80;;;;;;;16.78;63.85;99763.38;5012802;28;20190;-61
2023/06/14 03:31:32;;;;;;;5.17;4.20;;;;;;;16.74;63.92;99767.19;4981362;28;20662;-61
2023/06/14 03:33:58;;;;;;;4.43;3.77;;;;;;;16.76;64.20;99769.69;5012267;28;20300;-60
2023/06/14 03:36:23;;;;;;;5.93;3.33;;;;;;;16.67;64.61;99773.88;5011484;28;20299;-61
2023/06/14 03:38:48;;;;;;;5.83;3.90;;;;;;;16.72;64.98;99779.50;5012274;28;20218;-62
2023/06/14 03:41:14;;;;;;;6.73;3.60;;;;;;;16.81;66.74;99793.47;5010564;28;20217;-59
2023/06/14 03:43:39;;;;;;;5.90;3.40;;;;;;;16.95;64.25;99792.31;5018490;28;20634;-61
2023/06/14 03:46:04;;;;;;;8.77;4.10;;;;;;;17.00;64.07;99782.34;5011754;28;20179;-61
2023/06/14 03:48:30;;;;;;;6.00;4.20;;;;;;;16.94;63.86;99786.31;5012041;28;20179;-62
2023/06/14 03:50:55;;;;;;;7.13;3.43;;;;;;;16.98;67.42;99799.00;5008589;28;20253;-61
2023/06/14 03:53:23;;;;;;;6.33;4.30;;;;;;;16.98;71.60;99796.41;5010760;28;20269;-61
2023/06/14 03:55:49;;;;;;;5.97;4.13;;;;;;;16.94;73.55;99793.25;5007215;28;20681;-60
2023/06/14 03:58:15;;;;;;;5.03;3.63;;;;;;;16.71;76.67;99800.41;5009098;28;20225;-60
2023/06/14 04:00:40;;;;;;;5.67;4.00;;;;;;;16.58;77.16;99804.06;5006717;28;20630;-62
2023/06/14 04:03:05;;;;;;;4.53;4.13;;;;;;;16.59;77.75;99816.06;5022389;28;20356;-61
2023/06/14 04:05:31;;;;;;;5.87;3.77;;;;;;;16.56;77.30;99812.91;5009978;28;20548;-60
2023/06/14 04:07:56;;;;;;;4.37;3.97;;;;;;;16.56;78.82;99810.28;5012082;28;20211;-61
2023/06/14 04:10:22;;;;;;;5.37;3.70;;;;;;;16.60;78.86;99811.72;5002693;28;20227;-61
2023/06/14 04:12:47;;;;;;;7.73;3.93;;;;;;;16.65;79.35;99819.13;5024475;28;20202;-61
2023/06/14 04:15:14;;;;;;;8.80;4.50;;;;;;;16.68;74.17;99811.84;5011196;28;20210;-61
2023/06/14 04:17:39;;;;;;;9.77;4.30;;;;;;;16.56;75.83;99824.13;5011721;28;20227;-61
2023/06/14 04:20:06;;;;;;;5.77;4.03;;;;;;;16.81;69.66;99816.00;5001877;28;20240;-62
2023/06/14 04:22:31;;;;;;;5.93;3.80;;;;;;;16.87;67.70;99812.88;5026101;28;20473;-61
2023/06/14 04:24:57;;;;;;;7.57;3.70;;;;;;;17.01;67.67;99828.16;5011217;28;20178;-61
2023/06/14 04:27:25;;;;;;;5.33;3.80;;;;;;;17.13;66.57;99818.50;5011647;28;20202;-61
2023/06/14 04:29:56;;;;;;;7.13;3.90;;;;;;;17.23;66.17;99818.50;5011846;28;20207;-61
2023/06/14 04:32:26;;;;;;;8.27;4.20;;;;;;;17.36;67.48;99819.06;5016525;28;20230;-61
2023/06/14 04:34:53;;;;;;;5.70;3.73;;;;;;;17.36;70.77;99819.06;5011445;28;20187;-61
2023/06/14 04:37:20;;;;;;;6.47;3.77;;;;;;;17.45;72.70;99824.41;5011272;28;20225;-61
2023/06/14 04:39:47;;;;;;;4.23;3.70;;;;;;;17.53;73.76;99825.38;5011649;28;20289;-60
2023/06/14 04:42:13;;;;;;;5.93;4.00;;;;;;;17.64;74.87;99824.44;5016805;28;20777;-62
2023/06/14 04:44:39;;;;;;;9.83;3.83;;;;;;;17.69;74.65;99829.25;5011524;28;20206;-61
2023/06/14 04:47:06;;;;;;;4.93;3.83;;;;;;;17.82;75.02;99832.38;5011249;28;20210;-61
2023/06/14 04:49:33;;;;;;;7.43;4.10;;;;;;;17.90;72.62;99822.09;5010270;28;20259;-61
2023/06/14 04:52:01;;;;;;;3.77;3.43;;;;;;;17.97;74.41;99824.19;5015785;28;20253;-61
2023/06/14 04:54:27;;;;;;;9.63;4.10;;;;;;;18.10;71.69;99826.50;5014934;28;20179;-61
2023/06/14 04:56:55;;;;;;;5.33;3.77;;;;;;;18.04;65.91;99828.69;5007596;28;20278;-62
2023/06/14 04:59:22;;;;;;;14.77;3.80;;;;;;;18.00;62.95;99831.72;5015336;28;20642;-61
2023/06/14 05:01:48;;;;;;;6.77;4.00;;;;;;;18.21;62.41;99842.78;5018599;28;20226;-63
2023/06/14 05:04:17;;;;;;;6.63;3.50;;;;;;;18.16;60.97;99834.59;5016881;28;20209;-64
2023/06/14 05:06:49;;;;;;;4.63;3.43;;;;;;;18.28;61.85;99839.63;5013208;28;20171;-62
2023/06/14 05:09:16;;;;;;;11.60;4.77;;;;;;;18.22;60.15;99844.44;5015101;28;20182;-61
2023/06/14 05:11:44;;;;;;;5.60;3.60;;;;;;;18.25;59.51;99848.53;5017383;28;20226;-61
2023/06/14 05:14:10;;;;;;;5.20;3.20;;;;;;;18.33;58.01;99842.63;5017292;28;20183;-60
2023/06/14 05:16:35;;;;;;;4.20;3.50;;;;;;;18.43;58.93;99840.00;5012895;28;20225;-61
2023/06/14 05:19:01;;;;;;;4.63;3.60;;;;;;;18.33;59.63;99840.88;5014751;28;20568;-60
2023/06/14 05:21:26;;;;;;;6.70;3.77;;;;;;;18.43;58.70;99843.44;5015430;28;20336;-61
2023/06/14 05:23:51;;;;;;;6.10;4.13;;;;;;;18.64;58.42;99850.22;5019249;28;20175;-61
2023/06/14 05:26:17;;;;;;;9.93;3.97;;;;;;;18.75;58.16;99850.03;5014021;28;20203;-61
2023/06/14 05:28:42;;;;;;;5.50;3.90;;;;;;;18.57;58.00;99846.53;5014660;28;20233;-61
2023/06/14 05:31:07;;;;;;;7.83;3.53;;;;;;;18.57;56.62;99847.38;5012681;28;20228;-61
2023/06/14 05:33:33;;;;;;;8.80;4.20;;;;;;;18.72;57.12;99855.56;5008142;28;20626;-61
2023/06/14 05:35:58;;;;;;;7.70;3.60;;;;;;;18.82;56.00;99855.53;5014152;28;20183;-61
2023/06/14 05:38:23;;;;;;;6.50;3.50;;;;;;;18.95;54.65;99856.06;5014207;28;20181;-60
2023/06/14 05:40:48;;;;;;;7.93;3.57;;;;;;;18.96;55.42;99860.28;5010803;28;20304;-61
2023/06/14 05:43:14;;;;;;;3.73;3.17;;;;;;;18.99;54.11;99866.97;5023473;28;20217;-59
2023/06/14 05:45:39;;;;;;;4.27;3.17;;;;;;;18.92;53.50;99871.16;5013852;28;20174;-60
2023/06/14 05:48:05;;;;;;;3.90;3.20;;;;;;;19.08;52.40;99871.34;5014193;28;20265;-60
2023/06/14 05:50:30;;;;;;;5.53;3.50;;;;;;;19.25;51.63;99876.75;5006593;28;20381;-61
2023/06/14 05:52:55;;;;;;;6.13;3.20;;;;;;;19.37;50.67;99870.34;5011625;28;20593;-60
2023/06/14 05:55:21;;;;;;;7.20;3.20;;;;;;;19.62;51.01;99870.63;5013386;28;20187;-61
2023/06/14 05:57:47;;;;;;;4.07;2.90;;;;;;;19.71;48.34;99880.19;5007560;28;20174;-61
2023/06/14 06:00:16;;;;;;;5.27;3.20;;;;;;;19.63;48.42;99882.69;5005143;28;20179;-62
2023/06/14 06:02:43;;;;;;;8.07;3.83;;;;;;;19.93;47.71;99883.31;5027411;28;20210;-61
2023/06/14 06:05:09;;;;;;;9.23;3.40;;;;;;;20.39;46.60;99888.41;5012557;28;20227;-61
2023/06/14 06:07:34;;;;;;;5.53;3.50;;;;;;;20.69;45.13;99888.91;5013945;28;20190;-62
2023/06/14 06:10:00;;;;;;;7.00;3.13;;;;;;;20.92;45.06;99895.28;5013954;28;20550;-62
2023/06/14 06:12:25;;;;;;;8.47;3.67;;;;;;;21.22;43.36;99905.38;5018581;28;20218;-60
2023/06/14 06:14:50;;;;;;;3.40;3.07;;;;;;;21.41;43.41;99896.47;5014353;28;20238;-61
2023/06/14 06:17:15;;;;;;;7.50;3.40;;;;;;;21.27;43.66;99906.56;5011977;28;20229;-62
2023/06/14 06:19:41;;;;;;;4.70;2.77;;;;;;;21.43;42.81;99902.34;5013626;28;20264;-61
2023/06/14 06:22:06;;;;;;;4.83;3.10;;;;;;;21.29;44.28;99903.78;5018877;28;20229;-62
2023/06/14 06:24:32;;;;;;;9.50;2.77;;;;;;;22.37;41.20;99904.75;5013556;28;20610;-62
2023/06/14 06:26:57;;;;;;;11.07;3.30;;;;;;;21.99;41.73;99915.75;5013035;28;20207;-62
2023/06/14 06:29:22;;;;;;;6.87;3.43;;;;;;;21.59;42.91;99918.13;5013779;28;20179;-62
2023/06/14 06:31:48;;;;;;;7.63;3.23;;;;;;;21.63;42.60;99923.03;5015371;28;20226;-62
2023/06/14 06:34:13;;;;;;;9.50;3.47;;;;;;;21.71;42.78;99923.06;5003289;28;20185;-61
2023/06/14 06:36:38;;;;;;;4.53;3.33;;;;;;;21.74;42.77;99920.94;5013122;28;20187;-62
2023/06/14 06:39:09;;;;;;;5.90;3.30;;;;;;;22.15;43.24;99922.75;5013683;28;20187;-61
2023/06/14 06:41:39;;;;;;;8.63;3.50;;;;;;;22.69;41.63;99918.84;5014828;28;20253;-61
2023/06/14 06:44:05;;;;;;;3.63;3.20;;;;;;;23.63;40.25;99928.63;5016129;28;20179;-61
2023/06/14 06:46:31;;;;;;;10.20;3.27;;;;;;;23.55;39.67;99931.31;5010961;28;20182;-61
2023/06/14 06:48:56;;;;;;;10.00;3.30;;;;;;;23.29;40.51;99928.00;5012083;28;20510;-60
2023/06/14 06:51:22;;;;;;;7.07;3.23;;;;;;;24.18;39.36;99932.88;5013185;28;20302;-62
2023/06/14 06:53:52;;;;;;;8.25;3.50;;;;;;;23.65;39.83;99942.41;5018074;28;20217;-61
2023/06/14 06:56:18;;;;;;;6.00;3.40;;;;;;;23.58;39.98;99937.06;5005232;28;20611;-61
2023/06/14 06:58:43;;;;;;;4.68;3.70;;;;;;;23.10;40.21;99950.19;5012906;28;20194;-61
2023/06/14 07:01:09;;;;;;;6.90;3.40;;;;;;;22.34;41.24;99941.75;4992414;28;20230;-61
2023/06/14 07:03:35;;;;;;;6.57;3.30;;;;;;;21.82;43.02;99955.94;5012392;28;20191;-62
2023/06/14 07:06:00;;;;;;;6.83;3.20;;;;;;;22.78;41.80;99953.72;5012597;28;20187;-61
2023/06/14 07:08:25;;;;;;;4.10;2.90;;;;;;;23.64;39.71;99951.28;5012846;28;20232;-62
2023/06/14 07:10:51;;;;;;;5.77;3.73;;;;;;;22.92;39.76;99954.81;5008960;28;20731;-60
2023/06/14 07:13:16;;;;;;;7.60;3.30;;;;;;;23.24;40.41;99953.94;5021695;28;20248;-61
2023/06/14 07:15:41;;;;;;;7.03;3.30;;;;;;;23.77;38.72;99958.59;5006437;28;20270;-61
2023/06/14 07:18:08;;;;;;;5.03;3.10;;;;;;;23.43;39.62;99954.50;5022319;28;20638;-61
2023/06/14 07:20:33;;;;;;;4.57;3.10;;;;;;;24.32;38.61;99951.50;5005924;28;20591;-59
2023/06/14 07:22:58;;;;;;;8.02;3.25;;;;;;;24.23;37.70;99953.38;5011525;28;20190;-61
2023/06/14 07:25:24;;;;;;;5.30;2.72;;;;;;;24.15;38.26;99959.50;5011889;28;20263;-61
2023/06/14 07:27:49;;;;;;;3.00;2.80;;;;;;;24.10;37.94;99966.28;5012608;28;20191;-61
2023/06/14 07:30:14;;;;;;;6.00;2.88;;;;;;;24.09;39.01;99959.38;4981948;28;20285;-62
2023/06/14 07:32:40;;;;;;;10.27;2.80;;;;;;;24.88;37.01;99964.31;5011063;28;20205;-60
2023/06/14 07:35:06;;;;;;;4.95;2.60;;;;;;;24.57;36.47;99954.72;5011905;28;20178;-60
2023/06/14 07:37:31;;;;;;;6.32;2.70;;;;;;;24.41;37.53;99960.97;5012350;28;20565;-61
2023/06/14 07:39:56;;;;;;;4.25;2.55;;;;;;;25.06;36.68;99963.13;5012518;28;20301;-60
2023/06/14 07:42:22;;;;;;;7.15;2.67;;;;;;;25.48;36.22;99956.41;5001173;28;20230;-60
2023/06/14 07:44:47;;;;;;;10.45;2.85;;;;;;;25.90;35.06;99978.53;5012571;28;20536;-60
2023/06/14 07:47:12;;;;;;;4.53;2.83;;;;;;;25.66;35.79;99984.94;5011365;28;20224;-60
2023/06/14 07:49:37;;;;;;;7.90;2.90;;;;;;;25.52;36.10;99962.13;5012327;28;20248;-61
2023/06/14 07:52:04;;;;;;;7.15;2.80;;;;;;;26.00;35.50;99969.47;5017336;28;20256;-62
2023/06/14 07:54:31;;;;;;;5.00;2.65;;;;;;;26.67;33.39;99970.06;5011995;28;20240;-62
2023/06/14 07:56:57;;;;;;;5.07;2.65;;;;;;;26.44;33.63;99952.66;5011266;28;20650;-61
2023/06/14 07:59:22;;;;;;;3.95;2.47;;;;;;;26.66;33.60;99969.25;5012078;28;20178;-61
2023/06/14 08:01:47;;;;;;;8.60;2.60;;;;;;;26.40;33.82;99975.16;5015077;28;20237;-62
2023/06/14 08:04:14;;;;;;;11.45;2.83;;;;;;;25.72;34.78;99973.66;5013813;28;20206;-61
2023/06/14 08:06:40;;;;;;;4.97;2.80;;;;;;;26.31;33.38;99971.84;5011466;28;20198;-61
2023/06/14 08:09:05;;;;;;;8.45;2.40;;;;;;;26.34;34.00;99968.81;5011989;28;20549;-60
2023/06/14 08:11:31;;;;;;;9.88;2.35;;;;;;;27.19;32.66;99970.56;5012882;28;20259;-61
2023/06/14 08:13:56;;;;;;;4.18;2.15;;;;;;;26.70;32.39;99977.59;5015824;28;20235;-61
2023/06/14 08:16:21;;;;;;;6.38;2.88;;;;;;;25.94;34.02;99971.88;5010889;28;20230;-61
2023/06/14 08:18:46;;;;;;;6.32;2.67;;;;;;;26.16;34.23;99971.91;5010563;28;20187;-60
2023/06/14 08:21:14;;;;;;;4.88;2.22;;;;;;;26.77;32.98;99967.09;5010655;28;20237;-62
2023/06/14 08:23:40;;;;;;;3.08;2.40;;;;;;;26.01;33.78;99971.94;5017837;28;20214;-62
2023/06/14 08:26:06;;;;;;;2.67;2.40;;;;;;;26.26;32.99;99967.13;5011091;28;20569;-62
2023/06/14 08:28:31;;;;;;;4.22;2.05;;;;;;;26.38;31.98;99967.44;5013774;28;20195;-61
2023/06/14 08:30:56;;;;;;;4.32;2.33;;;;;;;25.88;33.25;99971.81;5012250;28;20271;-62
2023/06/14 08:33:21;;;;;;;2.17;2.03;;;;;;;26.16;33.44;99969.28;5024179;28;20213;-61
2023/06/14 08:35:47;;;;;;;6.13;2.03;;;;;;;26.83;32.31;99948.69;5015287;28;20576;-62
2023/06/14 08:38:13;;;;;;;5.72;2.10;;;;;;;27.13;32.18;99964.28;5015603;28;20175;-62
2023/06/14 08:40:39;;;;;;;5.18;2.10;;;;;;;26.95;32.53;99959.50;5010057;28;20253;-62
2023/06/14 08:43:05;;;;;;;3.13;2.20;;;;;;;26.29;33.01;99968.56;5013590;28;20660;-61
2023/06/14 08:45:31;;;;;;;2.78;2.25;;;;;;;26.79;31.85;99975.66;5014820;28;20179;-61
2023/06/14 08:47:59;;;;;;;2.90;2.10;;;;;;;26.94;31.57;99975.53;5015574;28;20249;-62
2023/06/14 08:50:29;;;;;;;2.30;2.10;;;;;;;26.73;33.00;99980.66;5007989;28;20242;-61
2023/06/14 08:53:00;;;;;;;5.03;1.75;;;;;;;25.70;34.52;99972.22;5027129;28;20245;-61
2023/06/14 08:55:27;;;;;;;6.53;1.95;;;;;;;26.76;32.92;99966.31;5013838;28;20221;-61
2023/06/14 08:57:54;;;;;;;11.00;2.20;;;;;;;26.69;33.06;99968.88;5009481;28;20194;-61
2023/06/14 09:00:20;;;;;;;3.70;1.85;;;;;;;26.21;34.11;99971.31;5007390;28;20600;-60
2023/06/14 09:02:46;;;;;;;2.05;1.92;;;;;;;25.07;35.44;99967.41;5028240;28;20586;-61
2023/06/14 09:05:13;;;;;;;3.95;2.33;;;;;;;25.61;35.55;99967.09;5014990;28;20213;-61
2023/06/14 09:07:42;;;;;;;5.07;2.10;;;;;;;27.03;33.45;99959.34;5015632;28;20266;-61
2023/06/14 09:10:16;;;;;;;2.78;1.63;;;;;;;26.01;32.53;99971.13;5005737;28;20206;-61
2023/06/14 09:12:42;;;;;;;5.65;2.30;;;;;;;26.73;32.32;99967.47;5028899;28;20205;-61
2023/06/14 09:15:08;;;;;;;3.17;1.60;;;;;;;26.76;32.48;99968.94;5014749;28;20591;-61
2023/06/14 09:17:38;;;;;;;1.95;1.75;;;;;;;26.90;32.52;99968.03;5015033;28;20719;-61
2023/06/14 09:20:10;;;;;;;3.15;2.20;;;;;;;25.41;34.78;99972.09;5005314;28;21004;-61
2023/06/14 09:22:39;;;;;;;3.47;1.67;;;;;;;26.76;32.45;99979.50;5000619;28;20585;-61
2023/06/14 09:25:05;;;;;;;1.63;1.50;;;;;;;27.26;31.49;99966.16;5014358;28;20269;-62
2023/06/14 09:27:32;;;;;;;2.85;1.60;;;;;;;25.81;33.12;99982.28;5015289;28;20258;-60
2023/06/14 09:29:57;;;;;;;1.33;1.13;;;;;;;26.72;31.40;99973.75;5015264;28;20680;-61
2023/06/14 09:32:23;;;;;;;2.30;1.40;;;;;;;27.08;31.37;99981.69;5019796;28;20250;-61
2023/06/14 09:34:48;;;;;;;3.30;1.75;;;;;;;26.13;32.43;99990.72;5014990;28;20517;-59
2023/06/14 09:37:27;;;;;;;1.70;1.30;;;;;;;25.84;33.84;99981.91;5014229;28;20206;-60
2023/06/14 09:39:52;;;;;;;2.15;1.60;;;;;;;26.49;31.89;99981.91;5013617;28;20236;-60
2023/06/14 09:42:19;;;;;;;1.80;1.50;;;;;;;26.82;31.75;100001.66;5019911;28;20214;-60
2023/06/14 09:44:47;;;;;;;1.65;1.55;;;;;;;28.11;30.44;99986.97;5014682;28;20713;-60
2023/06/14 09:47:16;;;;;;;2.25;1.50;;;;;;;27.50;31.47;99990.44;5014370;28;20186;-60
2023/06/14 09:49:42;;;;;;;3.40;1.83;;;;;;;26.95;31.06;99995.66;5014460;28;20187;-60
2023/06/14 09:52:14;;;;;;;5.57;1.42;;;;;;;26.20;32.18;99996.06;5019803;28;20264;-60
2023/06/14 09:54:46;;;;;;;3.50;1.70;;;;;;;26.39;31.62;99974.31;5014630;28;20266;-60
2023/06/14 09:57:12;;;;;;;3.95;1.35;;;;;;;27.22;30.87;99988.69;5006806;28;20183;-61
2023/06/14 09:59:42;;;;;;;4.95;1.42;;;;;;;26.70;31.25;100002.13;5014478;28;20202;-61
2023/06/14 10:02:14;;;;;;;2.33;1.38;;;;;;;26.10;32.24;99997.19;5018941;28;20783;-61
2023/06/14 10:04:46;;;;;;;6.03;1.70;;;;;;;26.21;32.43;99997.69;5013979;28;20573;-61
2023/06/14 10:07:15;;;;;;;1.60;1.50;;;;;;;26.85;31.53;99990.72;5013249;28;20609;-61
2023/06/14 10:09:44;;;;;;;2.00;1.80;;;;;;;26.92;30.90;99991.56;5014178;28;20179;-61
2023/06/14 10:12:10;;;;;;;3.92;1.70;;;;;;;27.78;30.30;99981.59;5019073;28;20859;-61
2023/06/14 10:14:36;;;;;;;6.68;1.48;;;;;;;28.19;28.65;99999.16;5013784;28;20232;-61
2023/06/14 10:17:10;;;;;;;3.00;1.30;;;;;;;27.45;29.68;99988.41;5012977;28;20297;-62
2023/06/14 10:19:52;;;;;;;1.70;1.40;;;;;;;26.71;31.46;100001.13;5013804;28;20198;-60
2023/06/14 10:22:24;;;;;;;3.35;1.50;;;;;;;26.91;30.74;99997.84;5019113;28;20553;-61
2023/06/14 10:24:50;;;;;;;1.83;1.60;;;;;;;26.24;30.67;99997.31;5013771;28;20186;-61
2023/06/14 10:27:23;;;;;;;2.58;1.38;;;;;;;25.32;32.54;99988.16;5013144;28;20256;-61
2023/06/14 10:29:55;;;;;;;4.35;1.90;;;;;;;25.60;31.24;99975.16;5013484;28;20182;-61
2023/06/14 10:32:21;;;;;;;3.35;1.75;;;;;;;25.54;31.65;99984.63;5018458;28;20725;-61
2023/06/14 10:34:57;;;;;;;2.22;1.50;;;;;;;26.26;31.28;99984.78;5013472;28;20313;-61
2023/06/14 10:37:24;;;;;;;1.92;1.30;;;;;;;25.94;31.13;99992.16;5013491;28;20273;-62
2023/06/14 10:39:50;;;;;;;3.17;1.60;;;;;;;26.39;30.86;99992.78;5013473;28;20646;-61
2023/06/14 10:42:16;;;;;;;1.75;1.65;;;;;;;25.23;32.21;99992.69;5003143;28;20348;-62
2023/06/14 10:44:49;;;;;;;3.88;1.55;;;;;;;23.73;34.16;99999.31;5001123;28;20226;-61
2023/06/14 10:47:34;;;;;;;5.05;1.63;;;;;;;22.93;36.10;99991.38;5012962;28;20226;-61
2023/06/14 10:50:08;;;;;;;1.60;1.50;;;;;;;22.61;36.24;100006.16;5013558;28;20242;-61
2023/06/14 10:52:37;;;;;;;1.70;1.60;;;;;;;22.02;37.91;99995.78;5001504;28;20219;-61
2023/06/14 10:55:06;;;;;;;3.53;1.80;;;;;;;22.18;37.65;99993.19;5012917;28;20182;-61
2023/06/14 10:57:36;;;;;;;3.87;1.70;;;;;;;22.24;39.40;99989.09;5013032;28;20582;-61
2023/06/14 11:00:12;;;;;;;1.90;1.70;;;;;;;22.32;37.88;99993.53;5013279;28;20178;-61
2023/06/14 11:03:22;;;;;;;4.50;1.70;;;;;;;22.55;37.65;99993.69;4991881;28;20229;-60
2023/06/14 11:05:47;;;;;;;2.83;1.30;;;;;;;22.74;38.49;99997.78;5012778;28;20295;-61
2023/06/14 11:09:00;;;;;;;2.40;1.30;;;;;;;22.26;38.76;100015.94;5012642;28;20214;-62
2023/06/14 11:11:33;;;;;;;5.57;1.50;;;;;;;22.26;38.45;99984.50;4956806;28;20230;-61
2023/06/14 11:14:00;;;;;;;2.13;1.53;;;;;;;22.33;38.21;99997.78;5004742;28;20175;-61
2023/06/14 11:16:27;;;;;;;2.03;1.80;;;;;;;22.13;39.61;100000.72;5012510;28;20291;-61
2023/06/14 11:18:53;;;;;;;3.50;1.67;;;;;;;22.40;38.53;99990.91;5017294;28;20203;-61
2023/06/14 11:21:18;;;;;;;2.40;2.00;;;;;;;22.07;39.48;99993.50;5012150;28;20292;-60
2023/06/14 11:23:55;;;;;;;6.00;1.40;;;;;;;22.62;39.58;99981.56;5018114;28;20179;-61
2023/06/14 11:26:28;;;;;;;3.90;2.47;;;;;;;22.50;38.45;99996.00;5011708;28;20661;-62
2023/06/14 11:28:58;;;;;;;2.03;1.63;;;;;;;22.60;39.52;99991.44;5012767;28;20179;-61
2023/06/14 11:31:23;;;;;;;1.90;1.77;;;;;;;22.66;39.82;100005.66;4981898;28;20222;-61
2023/06/14 11:33:50;;;;;;;2.97;1.77;;;;;;;22.43;38.99;99985.38;5012024;28;20947;-60